sensor_id;sensor_type;location;lat;lon;timestamp;noise_LAeq;noise_LA_min;noise_LA_max;noise_LA01;noise_LA95
66335;Laerm;53138;51.496;6.410;2024-01-27T00:00:00;41.19;35.68;47.21;;
66335;Laerm;53138;51.496;6.410;2024-01-27T00:00:11;43.95;34.94;53.01;;
66335;Laerm;53138;51.496;6.410;2024-01-27T00:00:21;35.21;33.40;38.15;;
66335;Laerm;53138;51.496;6.410;2024-01-27T00:00:31;35.17;33.14;46.98;;
66335;Laerm;53138;51.496;6.410;2024-01-27T00:00:41;36.06;32.80;53.23;;
66335;Laerm;53138;51.496;6.410;2024-01-27T00:00:51;34.55;32.58;36.24;;
66335;Laerm;53138;51.496;6.410;2024-01-27T00:01:05;34.87;33.09;42.76;;
66335;Laerm;53138;51.496;6.410;2024-01-27T00:01:15;34.70;33.03;36.34;;
66335;Laerm;53138;51.496;6.410;2024-01-27T00:01:26;34.79;33.22;41.37;;
66335;Laerm;53138;51.496;6.410;2024-01-27T00:01:36;34.79;32.97;36.51;;
66335;Laerm;53138;51.496;6.410;2024-01-27T00:01:46;34.89;33.15;36.79;;
66335;Laerm;53138;51.496;6.410;2024-01-27T00:01:56;34.92;33.27;36.78;;
66335;Laerm;53138;51.496;6.410;2024-01-27T00:02:06;34.96;33.45;39.11;;
66335;Laerm;53138;51.496;6.410;2024-01-27T00:02:17;35.04;33.25;37.62;;
66335;Laerm;53138;51.496;6.410;2024-01-27T00:02:27;34.71;33.17;36.69;;
66335;Laerm;53138;51.496;6.410;2024-01-27T00:02:37;34.81;32.89;36.89;;
66335;Laerm;53138;51.496;6.410;2024-01-27T00:02:47;35.22;33.10;36.95;;
66335;Laerm;53138;51.496;6.410;2024-01-27T00:02:57;35.03;33.26;38.16;;
66335;Laerm;53138;51.496;6.410;2024-01-27T00:03:08;35.22;33.52;37.01;;
66335;Laerm;53138;51.496;6.410;2024-01-27T00:03:18;35.05;32.95;37.14;;
66335;Laerm;53138;51.496;6.410;2024-01-27T00:03:28;35.30;33.27;37.27;;
66335;Laerm;53138;51.496;6.410;2024-01-27T00:03:38;35.26;33.61;41.55;;
66335;Laerm;53138;51.496;6.410;2024-01-27T00:03:49;35.65;33.39;43.76;;
66335;Laerm;53138;51.496;6.410;2024-01-27T00:04:00;35.39;33.34;38.66;;
66335;Laerm;53138;51.496;6.410;2024-01-27T00:04:10;35.19;33.14;37.58;;
66335;Laerm;53138;51.496;6.410;2024-01-27T00:04:21;35.01;33.59;36.38;;
66335;Laerm;53138;51.496;6.410;2024-01-27T00:04:31;35.42;33.90;37.16;;
66335;Laerm;53138;51.496;6.410;2024-01-27T00:04:41;35.35;33.19;37.81;;
66335;Laerm;53138;51.496;6.410;2024-01-27T00:04:51;35.52;33.44;37.30;;
66335;Laerm;53138;51.496;6.410;2024-01-27T00:05:02;35.43;33.78;37.27;;
66335;Laerm;53138;51.496;6.410;2024-01-27T00:05:12;35.25;33.22;37.01;;
66335;Laerm;53138;51.496;6.410;2024-01-27T00:05:23;35.53;33.40;42.92;;
66335;Laerm;53138;51.496;6.410;2024-01-27T00:05:33;37.76;34.17;43.83;;
66335;Laerm;53138;51.496;6.410;2024-01-27T00:05:43;44.51;37.64;52.08;;
66335;Laerm;53138;51.496;6.410;2024-01-27T00:05:53;44.19;34.53;55.17;;
66335;Laerm;53138;51.496;6.410;2024-01-27T00:06:03;35.27;33.41;39.24;;
66335;Laerm;53138;51.496;6.410;2024-01-27T00:06:14;35.46;33.57;44.53;;
66335;Laerm;53138;51.496;6.410;2024-01-27T00:06:24;35.25;33.43;36.87;;
66335;Laerm;53138;51.496;6.410;2024-01-27T00:06:34;35.38;33.48;38.85;;
66335;Laerm;53138;51.496;6.410;2024-01-27T00:06:44;35.57;33.58;41.40;;
66335;Laerm;53138;51.496;6.410;2024-01-27T00:06:55;35.84;34.16;41.39;;
66335;Laerm;53138;51.496;6.410;2024-01-27T00:07:05;35.90;34.42;39.11;;
66335;Laerm;53138;51.496;6.410;2024-01-27T00:07:15;36.01;34.41;38.07;;
66335;Laerm;53138;51.496;6.410;2024-01-27T00:07:25;35.90;33.92;39.15;;
66335;Laerm;53138;51.496;6.410;2024-01-27T00:07:38;36.47;33.82;38.83;;
66335;Laerm;53138;51.496;6.410;2024-01-27T00:07:48;37.12;35.08;42.04;;
66335;Laerm;53138;51.496;6.410;2024-01-27T00:07:58;39.75;36.10;43.08;;
66335;Laerm;53138;51.496;6.410;2024-01-27T00:08:08;44.01;38.50;51.18;;
66335;Laerm;53138;51.496;6.410;2024-01-27T00:08:19;45.61;40.65;51.59;;
66335;Laerm;53138;51.496;6.410;2024-01-27T00:08:29;41.28;36.95;45.11;;
66335;Laerm;53138;51.496;6.410;2024-01-27T00:08:39;42.00;36.06;49.69;;
66335;Laerm;53138;51.496;6.410;2024-01-27T00:08:49;37.49;34.63;41.69;;
66335;Laerm;53138;51.496;6.410;2024-01-27T00:09:00;37.30;34.70;42.16;;
66335;Laerm;53138;51.496;6.410;2024-01-27T00:09:10;38.68;36.28;42.60;;
66335;Laerm;53138;51.496;6.410;2024-01-27T00:09:20;40.51;36.21;45.63;;
66335;Laerm;53138;51.496;6.410;2024-01-27T00:09:30;36.80;34.59;40.94;;
66335;Laerm;53138;51.496;6.410;2024-01-27T00:09:41;36.16;34.74;38.12;;
66335;Laerm;53138;51.496;6.410;2024-01-27T00:09:51;35.88;34.03;38.28;;
66335;Laerm;53138;51.496;6.410;2024-01-27T00:10:02;35.73;33.90;38.92;;
66335;Laerm;53138;51.496;6.410;2024-01-27T00:10:12;36.02;33.47;39.26;;
66335;Laerm;53138;51.496;6.410;2024-01-27T00:10:22;36.23;33.81;39.71;;
66335;Laerm;53138;51.496;6.410;2024-01-27T00:10:32;36.23;34.18;39.68;;
66335;Laerm;53138;51.496;6.410;2024-01-27T00:10:43;36.07;33.74;38.36;;
66335;Laerm;53138;51.496;6.410;2024-01-27T00:10:55;36.16;34.31;38.71;;
66335;Laerm;53138;51.496;6.410;2024-01-27T00:11:06;36.06;34.18;38.16;;
66335;Laerm;53138;51.496;6.410;2024-01-27T00:11:16;36.06;34.12;38.73;;
66335;Laerm;53138;51.496;6.410;2024-01-27T00:11:26;36.07;34.26;38.36;;
66335;Laerm;53138;51.496;6.410;2024-01-27T00:11:36;35.98;33.84;38.23;;
66335;Laerm;53138;51.496;6.410;2024-01-27T00:11:47;35.04;33.22;36.79;;
66335;Laerm;53138;51.496;6.410;2024-01-27T00:11:57;34.84;33.52;36.69;;
66335;Laerm;53138;51.496;6.410;2024-01-27T00:12:07;34.83;33.36;36.55;;
66335;Laerm;53138;51.496;6.410;2024-01-27T00:12:17;34.81;33.28;37.13;;
66335;Laerm;53138;51.496;6.410;2024-01-27T00:12:28;34.63;32.91;36.58;;
66335;Laerm;53138;51.496;6.410;2024-01-27T00:12:38;34.66;33.02;36.41;;
66335;Laerm;53138;51.496;6.410;2024-01-27T00:12:48;34.79;33.37;36.88;;
66335;Laerm;53138;51.496;6.410;2024-01-27T00:12:59;34.68;32.81;36.73;;
66335;Laerm;53138;51.496;6.410;2024-01-27T00:13:09;34.73;33.31;36.52;;
66335;Laerm;53138;51.496;6.410;2024-01-27T00:13:19;35.41;33.20;38.27;;
66335;Laerm;53138;51.496;6.410;2024-01-27T00:13:29;42.19;36.78;48.70;;
66335;Laerm;53138;51.496;6.410;2024-01-27T00:13:39;41.40;35.67;45.81;;
66335;Laerm;53138;51.496;6.410;2024-01-27T00:13:50;43.32;36.09;47.36;;
66335;Laerm;53138;51.496;6.410;2024-01-27T00:14:00;40.85;36.20;46.65;;
66335;Laerm;53138;51.496;6.410;2024-01-27T00:14:11;38.64;33.74;44.47;;
66335;Laerm;53138;51.496;6.410;2024-01-27T00:14:21;35.73;33.31;38.56;;
66335;Laerm;53138;51.496;6.410;2024-01-27T00:14:31;35.13;33.20;36.61;;
66335;Laerm;53138;51.496;6.410;2024-01-27T00:14:41;35.43;33.47;37.35;;
66335;Laerm;53138;51.496;6.410;2024-01-27T00:14:53;35.33;33.90;36.72;;
66335;Laerm;53138;51.496;6.410;2024-01-27T00:15:04;35.23;33.50;36.86;;
66335;Laerm;53138;51.496;6.410;2024-01-27T00:15:14;34.80;33.09;37.12;;
66335;Laerm;53138;51.496;6.410;2024-01-27T00:15:24;35.08;33.17;44.36;;
66335;Laerm;53138;51.496;6.410;2024-01-27T00:15:34;34.88;33.36;36.51;;
66335;Laerm;53138;51.496;6.410;2024-01-27T00:15:45;34.94;33.48;37.77;;
66335;Laerm;53138;51.496;6.410;2024-01-27T00:15:55;35.31;33.48;38.44;;
66335;Laerm;53138;51.496;6.410;2024-01-27T00:16:05;34.64;33.27;36.25;;
66335;Laerm;53138;51.496;6.410;2024-01-27T00:16:15;34.94;33.14;40.03;;
66335;Laerm;53138;51.496;6.410;2024-01-27T00:16:26;34.83;33.02;36.70;;
66335;Laerm;53138;51.496;6.410;2024-01-27T00:16:36;34.75;33.26;37.02;;
66335;Laerm;53138;51.496;6.410;2024-01-27T00:16:46;34.89;33.14;36.36;;
66335;Laerm;53138;51.496;6.410;2024-01-27T00:16:56;34.67;32.72;36.79;;
66335;Laerm;53138;51.496;6.410;2024-01-27T00:17:07;34.46;32.78;35.99;;
66335;Laerm;53138;51.496;6.410;2024-01-27T00:17:17;34.29;32.91;35.92;;
66335;Laerm;53138;51.496;6.410;2024-01-27T00:17:27;34.40;33.03;36.14;;
66335;Laerm;53138;51.496;6.410;2024-01-27T00:17:38;34.02;32.44;35.48;;
66335;Laerm;53138;51.496;6.410;2024-01-27T00:17:48;33.87;32.32;35.31;;
66335;Laerm;53138;51.496;6.410;2024-01-27T00:17:58;34.40;32.57;36.47;;
66335;Laerm;53138;51.496;6.410;2024-01-27T00:18:08;39.00;33.82;44.19;;
66335;Laerm;53138;51.496;6.410;2024-01-27T00:18:18;35.97;34.11;39.28;;
66335;Laerm;53138;51.496;6.410;2024-01-27T00:18:29;37.56;33.96;42.17;;
66335;Laerm;53138;51.496;6.410;2024-01-27T00:18:39;35.93;33.18;40.69;;
66335;Laerm;53138;51.496;6.410;2024-01-27T00:18:49;37.35;32.81;46.65;;
66335;Laerm;53138;51.496;6.410;2024-01-27T00:18:59;35.02;32.75;40.46;;
66335;Laerm;53138;51.496;6.410;2024-01-27T00:19:11;34.83;33.15;36.76;;
66335;Laerm;53138;51.496;6.410;2024-01-27T00:19:21;35.70;32.82;46.53;;
66335;Laerm;53138;51.496;6.410;2024-01-27T00:19:31;34.96;32.87;40.88;;
66335;Laerm;53138;51.496;6.410;2024-01-27T00:19:42;34.55;32.90;42.47;;
66335;Laerm;53138;51.496;6.410;2024-01-27T00:19:52;34.90;32.84;45.27;;
66335;Laerm;53138;51.496;6.410;2024-01-27T00:20:02;34.89;32.97;42.03;;
66335;Laerm;53138;51.496;6.410;2024-01-27T00:20:13;34.68;32.92;40.98;;
66335;Laerm;53138;51.496;6.410;2024-01-27T00:20:23;34.91;32.66;42.81;;
66335;Laerm;53138;51.496;6.410;2024-01-27T00:20:33;35.02;33.38;41.89;;
66335;Laerm;53138;51.496;6.410;2024-01-27T00:20:43;34.97;32.97;42.39;;
66335;Laerm;53138;51.496;6.410;2024-01-27T00:20:54;34.80;33.01;38.23;;
66335;Laerm;53138;51.496;6.410;2024-01-27T00:21:05;34.74;33.27;38.72;;
66335;Laerm;53138;51.496;6.410;2024-01-27T00:21:16;34.91;33.28;37.42;;
66335;Laerm;53138;51.496;6.410;2024-01-27T00:21:26;35.41;33.73;42.34;;
66335;Laerm;53138;51.496;6.410;2024-01-27T00:21:36;35.53;33.98;37.53;;
66335;Laerm;53138;51.496;6.410;2024-01-27T00:21:46;35.83;33.77;37.46;;
66335;Laerm;53138;51.496;6.410;2024-01-27T00:21:57;35.91;33.99;37.44;;
66335;Laerm;53138;51.496;6.410;2024-01-27T00:22:08;35.73;33.51;37.75;;
66335;Laerm;53138;51.496;6.410;2024-01-27T00:22:19;36.05;33.86;38.71;;
66335;Laerm;53138;51.496;6.410;2024-01-27T00:22:30;36.57;34.38;39.56;;
66335;Laerm;53138;51.496;6.410;2024-01-27T00:22:41;36.91;33.88;39.83;;
66335;Laerm;53138;51.496;6.410;2024-01-27T00:22:51;36.87;34.31;40.42;;
66335;Laerm;53138;51.496;6.410;2024-01-27T00:23:01;36.40;34.36;38.49;;
66335;Laerm;53138;51.496;6.410;2024-01-27T00:23:12;38.95;35.37;43.49;;
66335;Laerm;53138;51.496;6.410;2024-01-27T00:23:22;44.04;39.96;48.37;;
66335;Laerm;53138;51.496;6.410;2024-01-27T00:23:32;44.99;39.36;50.90;;
66335;Laerm;53138;51.496;6.410;2024-01-27T00:23:44;40.19;36.55;43.97;;
66335;Laerm;53138;51.496;6.410;2024-01-27T00:23:54;39.45;35.54;43.31;;
66335;Laerm;53138;51.496;6.410;2024-01-27T00:24:10;40.36;35.54;45.34;;
66335;Laerm;53138;51.496;6.410;2024-01-27T00:24:20;38.74;35.82;41.44;;
66335;Laerm;53138;51.496;6.410;2024-01-27T00:24:31;37.59;34.41;41.93;;
66335;Laerm;53138;51.496;6.410;2024-01-27T00:24:41;37.21;33.72;41.48;;
66335;Laerm;53138;51.496;6.410;2024-01-27T00:24:51;36.05;33.69;39.02;;
66335;Laerm;53138;51.496;6.410;2024-01-27T00:25:02;36.27;33.71;39.75;;
66335;Laerm;53138;51.496;6.410;2024-01-27T00:25:12;35.29;33.28;37.60;;
66335;Laerm;53138;51.496;6.410;2024-01-27T00:25:22;35.81;33.75;38.89;;
66335;Laerm;53138;51.496;6.410;2024-01-27T00:25:33;35.05;33.10;37.42;;
66335;Laerm;53138;51.496;6.410;2024-01-27T00:25:43;35.41;33.12;39.20;;
66335;Laerm;53138;51.496;6.410;2024-01-27T00:25:53;35.14;32.69;43.30;;
66335;Laerm;53138;51.496;6.410;2024-01-27T00:26:04;34.86;33.00;39.02;;
66335;Laerm;53138;51.496;6.410;2024-01-27T00:26:14;35.40;33.12;45.99;;
66335;Laerm;53138;51.496;6.410;2024-01-27T00:26:24;35.11;33.00;37.20;;
66335;Laerm;53138;51.496;6.410;2024-01-27T00:26:34;36.60;33.62;42.38;;
66335;Laerm;53138;51.496;6.410;2024-01-27T00:26:45;42.77;37.81;51.70;;
66335;Laerm;53138;51.496;6.410;2024-01-27T00:26:55;45.61;37.03;53.89;;
66335;Laerm;53138;51.496;6.410;2024-01-27T00:27:05;35.45;33.02;38.56;;
66335;Laerm;53138;51.496;6.410;2024-01-27T00:27:15;34.26;32.91;36.12;;
66335;Laerm;53138;51.496;6.410;2024-01-27T00:27:26;34.09;32.67;36.17;;
66335;Laerm;53138;51.496;6.410;2024-01-27T00:27:36;34.13;32.81;35.77;;
66335;Laerm;53138;51.496;6.410;2024-01-27T00:27:46;34.32;32.93;35.88;;
66335;Laerm;53138;51.496;6.410;2024-01-27T00:27:57;34.19;32.54;35.99;;
66335;Laerm;53138;51.496;6.410;2024-01-27T00:28:07;34.40;32.89;36.76;;
66335;Laerm;53138;51.496;6.410;2024-01-27T00:28:17;38.68;33.60;44.30;;
66335;Laerm;53138;51.496;6.410;2024-01-27T00:28:27;39.07;35.26;44.47;;
66335;Laerm;53138;51.496;6.410;2024-01-27T00:28:37;37.33;34.82;40.37;;
66335;Laerm;53138;51.496;6.410;2024-01-27T00:28:48;36.25;34.25;38.44;;
66335;Laerm;53138;51.496;6.410;2024-01-27T00:28:58;35.92;33.88;38.65;;
66335;Laerm;53138;51.496;6.410;2024-01-27T00:29:08;37.08;33.92;45.47;;
66335;Laerm;53138;51.496;6.410;2024-01-27T00:29:18;36.71;33.13;40.84;;
66335;Laerm;53138;51.496;6.410;2024-01-27T00:29:28;35.07;33.47;36.76;;
66335;Laerm;53138;51.496;6.410;2024-01-27T00:29:39;34.77;33.14;37.15;;
66335;Laerm;53138;51.496;6.410;2024-01-27T00:29:49;34.66;32.00;38.29;;
66335;Laerm;53138;51.496;6.410;2024-01-27T00:29:59;34.32;32.64;35.85;;
66335;Laerm;53138;51.496;6.410;2024-01-27T00:30:09;34.30;32.55;41.44;;
66335;Laerm;53138;51.496;6.410;2024-01-27T00:30:21;34.62;32.67;43.89;;
66335;Laerm;53138;51.496;6.410;2024-01-27T00:30:31;34.56;32.86;40.77;;
66335;Laerm;53138;51.496;6.410;2024-01-27T00:30:42;34.41;32.77;35.85;;
66335;Laerm;53138;51.496;6.410;2024-01-27T00:30:52;34.81;33.03;41.81;;
66335;Laerm;53138;51.496;6.410;2024-01-27T00:31:02;34.75;32.85;42.20;;
66335;Laerm;53138;51.496;6.410;2024-01-27T00:31:12;34.87;33.28;36.63;;
66335;Laerm;53138;51.496;6.410;2024-01-27T00:31:23;35.17;33.62;36.88;;
66335;Laerm;53138;51.496;6.410;2024-01-27T00:31:33;35.37;33.63;37.23;;
66335;Laerm;53138;51.496;6.410;2024-01-27T00:31:43;35.41;33.22;36.94;;
66335;Laerm;53138;51.496;6.410;2024-01-27T00:31:53;36.09;34.15;40.92;;
66335;Laerm;53138;51.496;6.410;2024-01-27T00:32:04;37.41;34.33;43.96;;
66335;Laerm;53138;51.496;6.410;2024-01-27T00:32:15;38.48;34.86;44.20;;
66335;Laerm;53138;51.496;6.410;2024-01-27T00:32:25;41.55;38.22;46.66;;
66335;Laerm;53138;51.496;6.410;2024-01-27T00:32:35;39.40;36.69;42.34;;
66335;Laerm;53138;51.496;6.410;2024-01-27T00:32:45;42.38;34.96;48.48;;
66335;Laerm;53138;51.496;6.410;2024-01-27T00:32:56;35.78;33.37;47.98;;
66335;Laerm;53138;51.496;6.410;2024-01-27T00:33:06;35.99;33.16;51.03;;
66335;Laerm;53138;51.496;6.410;2024-01-27T00:33:16;34.97;32.52;43.04;;
66335;Laerm;53138;51.496;6.410;2024-01-27T00:33:26;36.01;33.13;51.31;;
66335;Laerm;53138;51.496;6.410;2024-01-27T00:33:37;36.58;33.70;42.53;;
66335;Laerm;53138;51.496;6.410;2024-01-27T00:33:47;42.14;34.15;51.33;;
66335;Laerm;53138;51.496;6.410;2024-01-27T00:33:57;46.20;39.28;52.62;;
66335;Laerm;53138;51.496;6.410;2024-01-27T00:34:07;37.92;34.28;42.78;;
66335;Laerm;53138;51.496;6.410;2024-01-27T00:34:18;38.20;34.74;42.57;;
66335;Laerm;53138;51.496;6.410;2024-01-27T00:34:28;36.49;34.16;39.10;;
66335;Laerm;53138;51.496;6.410;2024-01-27T00:34:38;36.85;34.12;39.75;;
66335;Laerm;53138;51.496;6.410;2024-01-27T00:34:48;36.14;34.05;45.60;;
66335;Laerm;53138;51.496;6.410;2024-01-27T00:34:58;36.26;33.82;41.17;;
66335;Laerm;53138;51.496;6.410;2024-01-27T00:35:09;36.20;33.76;45.68;;
66335;Laerm;53138;51.496;6.410;2024-01-27T00:35:21;36.47;34.28;44.21;;
66335;Laerm;53138;51.496;6.410;2024-01-27T00:35:31;36.25;34.20;44.71;;
66335;Laerm;53138;51.496;6.410;2024-01-27T00:35:42;35.85;33.98;38.10;;
66335;Laerm;53138;51.496;6.410;2024-01-27T00:35:52;35.97;33.59;43.19;;
66335;Laerm;53138;51.496;6.410;2024-01-27T00:36:02;35.55;33.51;37.21;;
66335;Laerm;53138;51.496;6.410;2024-01-27T00:36:13;35.92;34.06;38.23;;
66335;Laerm;53138;51.496;6.410;2024-01-27T00:36:23;36.21;34.04;38.13;;
66335;Laerm;53138;51.496;6.410;2024-01-27T00:36:33;36.20;33.99;38.27;;
66335;Laerm;53138;51.496;6.410;2024-01-27T00:36:46;37.29;34.55;42.64;;
66335;Laerm;53138;51.496;6.410;2024-01-27T00:36:58;38.85;35.48;42.72;;
66335;Laerm;53138;51.496;6.410;2024-01-27T00:37:09;39.08;36.17;42.94;;
66335;Laerm;53138;51.496;6.410;2024-01-27T00:37:19;45.48;38.98;52.99;;
66335;Laerm;53138;51.496;6.410;2024-01-27T00:37:29;46.05;39.12;53.52;;
66335;Laerm;53138;51.496;6.410;2024-01-27T00:37:42;40.06;34.65;48.02;;
66335;Laerm;53138;51.496;6.410;2024-01-27T00:37:52;35.33;33.73;36.74;;
66335;Laerm;53138;51.496;6.410;2024-01-27T00:38:03;35.40;33.73;37.13;;
66335;Laerm;53138;51.496;6.410;2024-01-27T00:38:13;35.56;33.69;38.90;;
66335;Laerm;53138;51.496;6.410;2024-01-27T00:38:23;35.63;34.02;37.50;;
66335;Laerm;53138;51.496;6.410;2024-01-27T00:38:34;36.35;34.05;39.90;;
66335;Laerm;53138;51.496;6.410;2024-01-27T00:38:44;36.19;34.35;39.05;;
66335;Laerm;53138;51.496;6.410;2024-01-27T00:38:54;35.72;33.70;37.89;;
66335;Laerm;53138;51.496;6.410;2024-01-27T00:39:04;35.78;33.87;37.54;;
66335;Laerm;53138;51.496;6.410;2024-01-27T00:39:15;35.71;33.74;37.84;;
66335;Laerm;53138;51.496;6.410;2024-01-27T00:39:25;35.72;33.76;37.81;;
66335;Laerm;53138;51.496;6.410;2024-01-27T00:39:35;35.61;33.34;37.04;;
66335;Laerm;53138;51.496;6.410;2024-01-27T00:39:46;35.78;33.75;37.70;;
66335;Laerm;53138;51.496;6.410;2024-01-27T00:39:56;35.52;33.97;37.70;;
66335;Laerm;53138;51.496;6.410;2024-01-27T00:40:09;35.69;33.52;37.90;;
66335;Laerm;53138;51.496;6.410;2024-01-27T00:40:20;35.47;33.54;38.50;;
66335;Laerm;53138;51.496;6.410;2024-01-27T00:40:30;35.52;33.64;37.47;;
66335;Laerm;53138;51.496;6.410;2024-01-27T00:40:40;36.80;33.93;40.62;;
66335;Laerm;53138;51.496;6.410;2024-01-27T00:40:51;36.64;34.34;38.98;;
66335;Laerm;53138;51.496;6.410;2024-01-27T00:41:01;37.18;34.71;40.61;;
66335;Laerm;53138;51.496;6.410;2024-01-27T00:41:17;41.27;35.53;47.38;;
66335;Laerm;53138;51.496;6.410;2024-01-27T00:41:28;42.55;37.39;48.77;;
66335;Laerm;53138;51.496;6.410;2024-01-27T00:41:38;39.42;36.47;44.24;;
66335;Laerm;53138;51.496;6.410;2024-01-27T00:41:48;40.03;36.12;45.23;;
66335;Laerm;53138;51.496;6.410;2024-01-27T00:41:58;41.02;36.14;46.54;;
66335;Laerm;53138;51.496;6.410;2024-01-27T00:42:09;36.75;34.48;39.05;;
66335;Laerm;53138;51.496;6.410;2024-01-27T00:42:19;36.11;33.86;38.40;;
66335;Laerm;53138;51.496;6.410;2024-01-27T00:42:33;35.86;33.93;38.01;;
66335;Laerm;53138;51.496;6.410;2024-01-27T00:42:44;35.92;34.04;39.07;;
66335;Laerm;53138;51.496;6.410;2024-01-27T00:42:54;36.30;34.00;38.39;;
66335;Laerm;53138;51.496;6.410;2024-01-27T00:43:04;40.08;35.97;45.87;;
66335;Laerm;53138;51.496;6.410;2024-01-27T00:43:15;38.10;35.29;46.75;;
66335;Laerm;53138;51.496;6.410;2024-01-27T00:43:25;36.56;34.72;44.54;;
66335;Laerm;53138;51.496;6.410;2024-01-27T00:43:35;35.77;33.98;38.69;;
66335;Laerm;53138;51.496;6.410;2024-01-27T00:43:45;35.75;33.74;39.60;;
66335;Laerm;53138;51.496;6.410;2024-01-27T00:43:56;35.95;33.93;44.21;;
66335;Laerm;53138;51.496;6.410;2024-01-27T00:44:06;35.44;33.79;38.93;;
66335;Laerm;53138;51.496;6.410;2024-01-27T00:44:16;35.79;33.94;37.63;;
66335;Laerm;53138;51.496;6.410;2024-01-27T00:44:26;35.75;34.00;39.58;;
66335;Laerm;53138;51.496;6.410;2024-01-27T00:44:37;35.81;33.54;37.93;;
66335;Laerm;53138;51.496;6.410;2024-01-27T00:44:47;35.70;33.47;38.60;;
66335;Laerm;53138;51.496;6.410;2024-01-27T00:44:57;35.84;33.91;39.77;;
66335;Laerm;53138;51.496;6.410;2024-01-27T00:45:07;36.49;34.37;45.28;;
66335;Laerm;53138;51.496;6.410;2024-01-27T00:45:18;36.69;34.60;40.95;;
66335;Laerm;53138;51.496;6.410;2024-01-27T00:45:29;40.95;35.47;45.87;;
66335;Laerm;53138;51.496;6.410;2024-01-27T00:45:40;44.78;38.90;52.36;;
66335;Laerm;53138;51.496;6.410;2024-01-27T00:45:50;36.24;33.04;40.36;;
66335;Laerm;53138;51.496;6.410;2024-01-27T00:46:01;34.82;33.22;38.24;;
66335;Laerm;53138;51.496;6.410;2024-01-27T00:46:11;34.93;33.21;38.97;;
66335;Laerm;53138;51.496;6.410;2024-01-27T00:46:21;34.76;32.98;37.58;;
66335;Laerm;53138;51.496;6.410;2024-01-27T00:46:31;34.44;32.73;36.51;;
66335;Laerm;53138;51.496;6.410;2024-01-27T00:46:42;34.49;32.87;37.55;;
66335;Laerm;53138;51.496;6.410;2024-01-27T00:46:52;35.03;33.22;42.52;;
66335;Laerm;53138;51.496;6.410;2024-01-27T00:47:02;34.79;32.75;37.69;;
66335;Laerm;53138;51.496;6.410;2024-01-27T00:47:13;35.53;33.28;37.43;;
66335;Laerm;53138;51.496;6.410;2024-01-27T00:47:23;35.87;34.22;38.07;;
66335;Laerm;53138;51.496;6.410;2024-01-27T00:47:33;36.33;34.25;46.10;;
66335;Laerm;53138;51.496;6.410;2024-01-27T00:47:44;37.46;34.99;40.16;;
66335;Laerm;53138;51.496;6.410;2024-01-27T00:47:54;43.13;36.75;48.19;;
66335;Laerm;53138;51.496;6.410;2024-01-27T00:48:04;43.13;37.19;48.97;;
66335;Laerm;53138;51.496;6.410;2024-01-27T00:48:15;36.84;33.83;40.91;;
66335;Laerm;53138;51.496;6.410;2024-01-27T00:48:25;35.38;32.90;38.60;;
66335;Laerm;53138;51.496;6.410;2024-01-27T00:48:35;35.60;33.50;37.99;;
66335;Laerm;53138;51.496;6.410;2024-01-27T00:48:45;35.54;33.27;43.71;;
66335;Laerm;53138;51.496;6.410;2024-01-27T00:48:56;35.63;33.49;41.67;;
66335;Laerm;53138;51.496;6.410;2024-01-27T00:49:07;35.89;33.03;48.52;;
66335;Laerm;53138;51.496;6.410;2024-01-27T00:49:17;35.83;33.42;39.78;;
66335;Laerm;53138;51.496;6.410;2024-01-27T00:49:28;35.48;33.66;38.43;;
66335;Laerm;53138;51.496;6.410;2024-01-27T00:49:38;35.75;33.77;37.70;;
66335;Laerm;53138;51.496;6.410;2024-01-27T00:49:48;36.63;34.43;39.52;;
66335;Laerm;53138;51.496;6.410;2024-01-27T00:49:58;42.62;36.27;47.89;;
66335;Laerm;53138;51.496;6.410;2024-01-27T00:50:08;44.16;38.51;50.89;;
66335;Laerm;53138;51.496;6.410;2024-01-27T00:50:19;37.12;33.09;42.05;;
66335;Laerm;53138;51.496;6.410;2024-01-27T00:50:29;34.44;32.65;36.31;;
66335;Laerm;53138;51.496;6.410;2024-01-27T00:50:39;34.37;32.90;35.97;;
66335;Laerm;53138;51.496;6.410;2024-01-27T00:50:49;34.48;32.69;40.10;;
66335;Laerm;53138;51.496;6.410;2024-01-27T00:51:00;34.44;32.89;36.28;;
66335;Laerm;53138;51.496;6.410;2024-01-27T00:51:10;34.81;32.84;41.20;;
66335;Laerm;53138;51.496;6.410;2024-01-27T00:51:20;35.62;33.10;44.27;;
66335;Laerm;53138;51.496;6.410;2024-01-27T00:51:30;38.58;34.48;43.24;;
66335;Laerm;53138;51.496;6.410;2024-01-27T00:51:40;37.94;34.61;43.73;;
66335;Laerm;53138;51.496;6.410;2024-01-27T00:51:51;38.16;33.92;44.35;;
66335;Laerm;53138;51.496;6.410;2024-01-27T00:52:01;35.06;33.88;36.94;;
66335;Laerm;53138;51.496;6.410;2024-01-27T00:52:11;34.94;33.05;43.89;;
66335;Laerm;53138;51.496;6.410;2024-01-27T00:52:21;34.90;32.89;37.90;;
66335;Laerm;53138;51.496;6.410;2024-01-27T00:52:31;34.90;32.84;36.62;;
66335;Laerm;53138;51.496;6.410;2024-01-27T00:52:42;35.05;33.54;41.91;;
66335;Laerm;53138;51.496;6.410;2024-01-27T00:52:52;34.93;33.01;39.01;;
66335;Laerm;53138;51.496;6.410;2024-01-27T00:53:02;34.77;33.31;36.31;;
66335;Laerm;53138;51.496;6.410;2024-01-27T00:53:12;34.98;33.02;38.18;;
66335;Laerm;53138;51.496;6.410;2024-01-27T00:53:23;34.98;33.36;37.47;;
66335;Laerm;53138;51.496;6.410;2024-01-27T00:53:33;35.32;33.65;36.82;;
66335;Laerm;53138;51.496;6.410;2024-01-27T00:53:44;35.37;33.47;37.33;;
66335;Laerm;53138;51.496;6.410;2024-01-27T00:53:54;35.21;33.66;37.16;;
66335;Laerm;53138;51.496;6.410;2024-01-27T00:54:04;35.32;33.66;37.56;;
66335;Laerm;53138;51.496;6.410;2024-01-27T00:54:14;35.17;33.13;36.86;;
66335;Laerm;53138;51.496;6.410;2024-01-27T00:54:25;35.14;33.50;37.51;;
66335;Laerm;53138;51.496;6.410;2024-01-27T00:54:35;35.55;33.75;37.76;;
66335;Laerm;53138;51.496;6.410;2024-01-27T00:54:45;37.64;34.59;47.62;;
66335;Laerm;53138;51.496;6.410;2024-01-27T00:54:56;36.26;34.73;38.37;;
66335;Laerm;53138;51.496;6.410;2024-01-27T00:55:06;37.05;34.23;44.41;;
66335;Laerm;53138;51.496;6.410;2024-01-27T00:55:16;36.05;34.15;39.41;;
66335;Laerm;53138;51.496;6.410;2024-01-27T00:55:29;36.02;33.95;38.16;;
66335;Laerm;53138;51.496;6.410;2024-01-27T00:55:39;36.11;34.11;39.05;;
66335;Laerm;53138;51.496;6.410;2024-01-27T00:55:50;35.76;33.96;38.21;;
66335;Laerm;53138;51.496;6.410;2024-01-27T00:56:01;35.64;33.40;38.25;;
66335;Laerm;53138;51.496;6.410;2024-01-27T00:56:11;35.82;33.83;37.88;;
66335;Laerm;53138;51.496;6.410;2024-01-27T00:56:21;36.14;34.28;38.05;;
66335;Laerm;53138;51.496;6.410;2024-01-27T00:56:31;36.29;34.51;38.49;;
66335;Laerm;53138;51.496;6.410;2024-01-27T00:56:42;36.80;35.20;39.86;;
66335;Laerm;53138;51.496;6.410;2024-01-27T00:56:52;38.61;35.95;44.34;;
66335;Laerm;53138;51.496;6.410;2024-01-27T00:57:02;41.19;35.96;47.34;;
66335;Laerm;53138;51.496;6.410;2024-01-27T00:57:13;39.84;36.61;46.38;;
66335;Laerm;53138;51.496;6.410;2024-01-27T00:57:23;43.28;39.03;48.57;;
66335;Laerm;53138;51.496;6.410;2024-01-27T00:57:34;43.82;35.50;51.95;;
66335;Laerm;53138;51.496;6.410;2024-01-27T00:57:44;36.05;33.92;38.05;;
66335;Laerm;53138;51.496;6.410;2024-01-27T00:57:54;35.76;34.07;37.53;;
66335;Laerm;53138;51.496;6.410;2024-01-27T00:58:05;36.18;34.08;38.23;;
66335;Laerm;53138;51.496;6.410;2024-01-27T00:58:15;36.51;34.43;43.77;;